createdAt,value
2019-05-10T00:01:06.932Z,71.21
2019-05-10T00:03:54.195Z,71.27
2019-05-10T00:06:41.883Z,71.37
2019-05-10T00:09:11.013Z,71.44
2019-05-10T00:11:49.317Z,71.61
2019-05-10T00:14:20.419Z,71.66
2019-05-10T00:16:51.360Z,71.91
2019-05-10T00:19:20.843Z,72.00
2019-05-10T00:21:50.380Z,72.13
2019-05-10T00:24:19.816Z,72.21
2019-05-10T00:26:49.357Z,72.34
2019-05-10T00:29:19.002Z,72.39
2019-05-10T00:31:48.458Z,72.65
2019-05-10T00:34:17.907Z,72.76
2019-05-10T00:36:47.767Z,72.88
2019-05-10T00:39:19.566Z,73.00
2019-05-10T00:41:48.739Z,73.19
2019-05-10T00:44:18.225Z,73.25
2019-05-10T00:46:47.785Z,73.33
2019-05-10T00:49:17.233Z,73.54
2019-05-10T00:51:46.743Z,73.69
2019-05-10T00:54:16.275Z,73.90
2019-05-10T00:56:46.071Z,74.04
2019-05-10T00:59:15.572Z,74.14
2019-05-10T01:01:45.104Z,74.25
2019-05-10T01:04:14.905Z,74.40
2019-05-10T01:06:44.399Z,74.58
2019-05-10T01:09:13.969Z,74.82
2019-05-10T01:11:43.419Z,74.97
2019-05-10T01:14:12.894Z,75.01
2019-05-10T01:16:42.356Z,75.24
2019-05-10T01:19:11.852Z,75.50
2019-05-10T01:21:41.672Z,75.68
2019-05-10T01:24:11.469Z,75.80
2019-05-10T01:26:40.995Z,75.88
2019-05-10T01:29:10.889Z,76.12
2019-05-10T01:31:40.437Z,76.19
2019-05-10T01:34:09.888Z,76.31
2019-05-10T01:36:39.551Z,76.51
2019-05-10T01:39:09.030Z,76.48
2019-05-10T01:41:38.557Z,76.57
2019-05-10T01:44:07.997Z,76.65
2019-05-10T01:46:37.869Z,76.70
2019-05-10T01:49:07.313Z,76.92
2019-05-10T01:51:36.802Z,77.05
2019-05-10T01:54:09.424Z,77.15
2019-05-10T01:56:39.350Z,77.37
2019-05-10T01:59:08.958Z,77.25
2019-05-10T02:01:38.462Z,77.34
2019-05-10T02:04:08.202Z,77.57
2019-05-10T02:06:37.759Z,77.65
2019-05-10T02:09:08.475Z,77.84
2019-05-10T02:11:37.961Z,77.84
2019-05-10T02:14:07.444Z,77.90
2019-05-10T02:16:37.177Z,78.03
2019-05-10T02:19:06.661Z,78.12
2019-05-10T02:21:36.220Z,78.27
2019-05-10T02:24:05.707Z,78.47
2019-05-10T02:26:35.477Z,78.57
2019-05-10T02:29:05.392Z,78.68
2019-05-10T02:31:34.876Z,78.81
2019-05-10T02:34:04.354Z,78.96
2019-05-10T02:36:33.926Z,79.08
2019-05-10T02:39:03.374Z,79.21
2019-05-10T02:41:33.132Z,79.28
2019-05-10T02:44:02.581Z,79.40
2019-05-10T02:46:32.062Z,79.48
2019-05-10T02:49:01.516Z,79.57
2019-05-10T02:51:31.370Z,79.72
2019-05-10T02:54:01.196Z,79.73
2019-05-10T02:56:31.923Z,79.92
2019-05-10T02:59:02.403Z,79.86
2019-05-10T03:01:31.957Z,79.96
2019-05-10T03:04:02.770Z,79.88
2019-05-10T03:06:35.531Z,79.81
2019-05-10T03:09:07.562Z,80.03
2019-05-10T03:11:47.380Z,79.84
2019-05-10T03:14:20.415Z,79.92
2019-05-10T03:16:52.939Z,79.85
2019-05-10T03:19:22.767Z,79.93
2019-05-10T03:22:09.145Z,79.93
2019-05-10T03:24:38.981Z,79.91
2019-05-10T03:27:08.434Z,79.87
2019-05-10T03:29:37.917Z,79.89
2019-05-10T03:32:07.643Z,79.87
2019-05-10T03:34:37.133Z,79.85
2019-05-10T03:37:06.842Z,79.71
2019-05-10T03:39:36.434Z,79.62
2019-05-10T03:42:06.061Z,79.51
2019-05-10T03:44:35.622Z,79.42
2019-05-10T03:47:05.071Z,79.36
2019-05-10T03:49:34.869Z,79.32
2019-05-10T03:52:04.688Z,79.18
2019-05-10T03:54:35.265Z,79.03
2019-05-10T03:57:13.177Z,79.01
2019-05-10T03:59:35.921Z,78.96
2019-05-10T04:02:05.452Z,78.94
2019-05-10T04:04:35.081Z,78.91
2019-05-10T04:07:04.629Z,78.93
2019-05-10T04:09:34.168Z,78.91
2019-05-10T04:12:03.623Z,78.82
2019-05-10T04:14:33.128Z,78.84
2019-05-10T04:17:02.586Z,78.77
2019-05-10T04:19:32.066Z,78.67
2019-05-10T04:22:01.518Z,78.76
2019-05-10T04:24:35.695Z,78.61
2019-05-10T04:27:02.219Z,78.74
2019-05-10T04:29:32.114Z,79.00
2019-05-10T04:32:01.571Z,79.27
2019-05-10T04:34:31.068Z,79.52
2019-05-10T04:37:00.558Z,79.68
2019-05-10T04:39:30.054Z,79.66
2019-05-10T04:41:59.515Z,79.84
2019-05-10T04:44:29.063Z,79.97
2019-05-10T04:46:58.530Z,80.15
2019-05-10T04:49:28.122Z,80.29
2019-05-10T04:51:57.685Z,80.32
2019-05-10T04:54:27.141Z,80.47
2019-05-10T04:57:00.081Z,80.40
2019-05-10T04:59:27.790Z,80.42
2019-05-10T05:01:57.277Z,80.53
2019-05-10T05:04:26.837Z,80.55
2019-05-10T05:06:56.635Z,80.51
2019-05-10T05:09:26.447Z,80.35
2019-05-10T05:11:56.221Z,80.43
2019-05-10T05:14:25.673Z,80.34
2019-05-10T05:16:55.363Z,80.23
2019-05-10T05:19:25.185Z,80.28
2019-05-10T05:21:55.425Z,80.10
2019-05-10T05:24:24.892Z,80.06
2019-05-10T05:26:54.416Z,80.04
2019-05-10T05:29:23.873Z,80.22
2019-05-10T05:31:53.968Z,80.14
2019-05-10T05:34:24.527Z,80.21
2019-05-10T05:36:54.087Z,80.30
2019-05-10T05:39:23.555Z,79.91
2019-05-10T05:41:56.274Z,79.52
2019-05-10T05:44:26.221Z,79.29
2019-05-10T05:46:55.540Z,78.98
2019-05-10T05:49:25.022Z,78.67
2019-05-10T05:51:54.635Z,78.00
2019-05-10T05:54:24.184Z,77.20
2019-05-10T05:56:53.712Z,76.52
2019-05-10T05:59:25.927Z,76.06
2019-05-10T06:01:54.424Z,74.67
2019-05-10T06:04:24.304Z,74.18
2019-05-10T06:06:59.151Z,73.82
2019-05-10T06:09:25.123Z,73.42
2019-05-10T06:11:54.964Z,71.78
2019-05-10T06:14:24.449Z,71.89
2019-05-10T06:16:53.979Z,71.34
2019-05-10T06:19:29.340Z,71.10
2019-05-10T06:21:57.945Z,70.22
2019-05-10T06:24:27.198Z,69.84
2019-05-10T06:26:58.196Z,69.01
2019-05-10T06:29:28.332Z,68.63
2019-05-10T06:31:58.908Z,68.86
2019-05-10T06:34:31.775Z,68.37
2019-05-10T06:37:00.384Z,67.43
2019-05-10T06:39:29.861Z,67.47
2019-05-10T06:41:59.346Z,67.19
2019-05-10T06:44:31.204Z,66.55
2019-05-10T06:47:02.023Z,66.11
2019-05-10T06:49:31.725Z,66.46
2019-05-10T06:52:01.225Z,66.30
2019-05-10T06:54:31.057Z,66.29
2019-05-10T06:57:01.987Z,66.21
2019-05-10T06:59:32.905Z,66.83
2019-05-10T07:02:02.722Z,67.07
2019-05-10T07:04:37.872Z,66.45
2019-05-10T07:07:10.398Z,66.22
2019-05-10T07:10:00.439Z,66.17
2019-05-10T07:12:09.291Z,65.81
2019-05-10T07:14:44.963Z,65.89
2019-05-10T07:17:08.454Z,66.13
2019-05-10T07:19:41.585Z,66.57
2019-05-10T07:22:09.437Z,66.29
2019-05-10T07:24:38.966Z,66.23
2019-05-10T07:27:08.543Z,65.81
2019-05-10T07:29:42.879Z,65.09
2019-05-10T07:32:10.433Z,64.72
2019-05-10T07:34:39.944Z,63.94
2019-05-10T07:37:10.436Z,64.29
2019-05-10T07:39:39.908Z,64.40
2019-05-10T07:42:09.417Z,64.77
2019-05-10T07:44:41.642Z,64.57
2019-05-10T07:47:10.084Z,64.26
2019-05-10T07:49:39.919Z,63.26
2019-05-10T07:52:09.412Z,62.75
2019-05-10T07:54:45.290Z,62.29
2019-05-10T07:57:10.109Z,61.95
2019-05-10T07:59:49.959Z,62.00
2019-05-10T08:02:12.939Z,61.71
2019-05-10T08:04:42.101Z,62.00
2019-05-10T08:07:12.631Z,62.38
2019-05-10T08:09:45.242Z,61.67
2019-05-10T08:12:13.256Z,61.31
2019-05-10T08:14:44.543Z,60.49
2019-05-10T08:17:14.241Z,60.54
2019-05-10T08:19:44.034Z,60.11
2019-05-10T08:22:14.908Z,59.62
2019-05-10T08:24:52.120Z,59.55
2019-05-10T08:27:16.693Z,58.24
2019-05-10T08:29:53.878Z,57.87
2019-05-10T08:32:19.333Z,57.31
2019-05-10T08:34:53.069Z,56.46
2019-05-10T08:37:30.742Z,56.18
2019-05-10T08:39:55.953Z,56.00
2019-05-10T08:42:37.836Z,56.58
2019-05-10T08:45:03.755Z,56.63
2019-05-10T08:47:27.854Z,56.82
2019-05-10T08:50:12.185Z,56.19
2019-05-10T08:52:31.739Z,57.32
2019-05-10T08:55:02.750Z,57.61
2019-05-10T08:57:34.774Z,58.29
2019-05-10T09:00:08.770Z,58.87
2019-05-10T09:02:38.023Z,58.60
2019-05-10T09:05:08.341Z,58.73
2019-05-10T09:07:39.077Z,59.00
2019-05-10T09:10:09.818Z,59.62
2019-05-10T09:12:44.135Z,59.94
2019-05-10T09:15:13.513Z,60.58
2019-05-10T09:17:42.966Z,60.81
2019-05-10T09:20:20.599Z,60.77
2019-05-10T09:22:45.055Z,60.70
2019-05-10T09:25:15.110Z,60.64
2019-05-10T09:27:44.850Z,60.34
2019-05-10T09:30:18.536Z,60.54
2019-05-10T09:32:48.245Z,60.37
2019-05-10T09:35:18.811Z,59.60
2019-05-10T09:37:56.728Z,60.72
2019-05-10T09:40:21.851Z,61.49
2019-05-10T09:42:52.276Z,61.93
2019-05-10T09:45:24.326Z,62.07
2019-05-10T09:47:53.275Z,62.05
2019-05-10T09:50:23.309Z,62.42
2019-05-10T09:52:52.859Z,63.06
2019-05-10T09:55:22.429Z,63.56
2019-05-10T09:57:51.949Z,63.87
2019-05-10T10:00:24.516Z,63.73
2019-05-10T10:02:56.695Z,63.67
2019-05-10T10:05:25.506Z,63.77
2019-05-10T10:07:57.723Z,63.58
2019-05-10T10:10:32.205Z,64.32
2019-05-10T10:13:07.332Z,64.70
2019-05-10T10:15:33.941Z,65.01
2019-05-10T10:18:00.110Z,65.24
2019-05-10T10:20:36.046Z,65.02
2019-05-10T10:23:02.947Z,65.13
2019-05-10T10:25:35.332Z,65.43
2019-05-10T10:28:08.246Z,65.96
2019-05-10T10:30:37.406Z,67.31
2019-05-10T10:33:11.349Z,67.65
2019-05-10T10:35:38.339Z,67.80
2019-05-10T10:38:08.273Z,68.02
2019-05-10T10:40:44.346Z,67.29
2019-05-10T10:43:09.306Z,66.63
2019-05-10T10:45:38.819Z,66.08
2019-05-10T10:48:12.604Z,65.52
2019-05-10T10:50:44.393Z,65.37
2019-05-10T10:53:13.494Z,65.28
2019-05-10T10:55:48.359Z,65.45
2019-05-10T10:58:14.309Z,65.15
2019-05-10T11:00:43.856Z,64.64
2019-05-10T11:03:13.481Z,63.93
2019-05-10T11:05:43.147Z,63.30
2019-05-10T11:08:15.402Z,63.73
2019-05-10T11:10:45.418Z,63.30
2019-05-10T11:13:20.453Z,62.99
2019-05-10T11:15:46.061Z,62.76
2019-05-10T11:18:15.531Z,60.73
2019-05-10T11:20:49.328Z,59.31
2019-05-10T11:23:16.430Z,60.03
2019-05-10T11:25:54.827Z,60.70
2019-05-10T11:28:17.809Z,60.13
2019-05-10T11:30:47.388Z,60.64
2019-05-10T11:33:29.141Z,61.20
2019-05-10T11:35:51.333Z,60.31
2019-05-10T11:38:21.580Z,59.28
2019-05-10T11:40:51.115Z,59.43
2019-05-10T11:43:23.703Z,58.69
2019-05-10T11:45:54.329Z,59.00
2019-05-10T11:48:31.081Z,58.29
2019-05-10T11:50:56.025Z,58.01
2019-05-10T11:53:25.473Z,57.73
2019-05-10T11:55:55.057Z,57.52
2019-05-10T11:58:24.994Z,56.83
2019-05-10T12:00:59.381Z,55.22
2019-05-10T12:03:25.954Z,56.05
2019-05-10T12:06:04.361Z,53.99
2019-05-10T12:08:26.601Z,53.92
2019-05-10T12:11:07.604Z,54.39
2019-05-10T12:13:32.564Z,52.99
2019-05-10T12:16:00.261Z,52.53
2019-05-10T12:18:32.522Z,52.59
2019-05-10T12:21:09.437Z,53.38
2019-05-10T12:23:32.273Z,51.65
2019-05-10T12:27:13.156Z,51.81
2019-05-10T12:28:35.479Z,51.56
2019-05-10T12:31:07.743Z,51.38
2019-05-10T12:33:36.627Z,51.69
2019-05-10T12:36:13.527Z,52.29
2019-05-10T12:38:38.539Z,51.45
2019-05-10T12:41:09.210Z,52.12
2019-05-10T12:43:43.136Z,52.28
2019-05-10T12:46:10.550Z,52.65
2019-05-10T12:48:42.482Z,51.54
2019-05-10T12:51:15.687Z,51.22
2019-05-10T12:53:47.627Z,52.04
2019-05-10T12:56:14.557Z,51.59
2019-05-10T12:58:44.036Z,50.46
2019-05-10T13:01:13.564Z,50.66
2019-05-10T13:03:43.133Z,51.26
2019-05-10T13:06:12.673Z,50.48
2019-05-10T13:08:42.195Z,49.46
2019-05-10T13:11:11.709Z,49.21
2019-05-10T13:13:41.270Z,49.00
2019-05-10T13:16:11.917Z,50.31
2019-05-10T13:18:50.207Z,51.29
2019-05-10T13:21:19.747Z,51.06
2019-05-10T13:23:44.068Z,51.18
2019-05-10T13:26:13.963Z,50.68
2019-05-10T13:28:44.586Z,50.69
2019-05-10T13:31:15.200Z,50.27
2019-05-10T13:33:45.012Z,50.97
2019-05-10T13:36:15.132Z,51.16
2019-05-10T13:38:49.067Z,51.78
2019-05-10T13:41:17.758Z,51.89
2019-05-10T13:43:47.263Z,51.73
2019-05-10T13:46:16.773Z,51.27
2019-05-10T13:48:46.273Z,51.54
2019-05-10T13:51:15.826Z,51.11
2019-05-10T13:53:45.360Z,50.59
2019-05-10T13:56:14.912Z,50.71
2019-05-10T13:58:44.573Z,50.33
2019-05-10T14:01:14.889Z,49.42
2019-05-10T14:03:48.883Z,47.83
2019-05-10T14:06:16.550Z,47.83
2019-05-10T14:08:48.201Z,47.59
2019-05-10T14:11:17.473Z,47.18
2019-05-10T14:13:47.067Z,47.97
2019-05-10T14:16:19.732Z,47.76
2019-05-10T14:18:48.132Z,47.01
2019-05-10T14:21:17.884Z,45.37
2019-05-10T14:23:47.477Z,45.48
2019-05-10T14:26:18.285Z,46.52
2019-05-10T14:28:53.078Z,46.35
2019-05-10T14:31:19.269Z,44.89
2019-05-10T14:34:14.103Z,45.81
2019-05-10T14:36:20.002Z,46.21
2019-05-10T14:38:53.922Z,47.49
2019-05-10T14:41:20.896Z,46.68
2019-05-10T14:43:50.796Z,47.73
2019-05-10T14:46:20.252Z,47.71
2019-05-10T14:48:49.929Z,48.48
2019-05-10T14:51:19.710Z,48.66
2019-05-10T14:53:49.303Z,48.59
2019-05-10T14:56:18.767Z,48.48
2019-05-10T14:58:48.462Z,48.78
2019-05-10T15:01:18.041Z,49.37
2019-05-10T15:03:47.643Z,49.42
2019-05-10T15:06:17.569Z,50.24
2019-05-10T15:08:49.118Z,50.42
2019-05-10T15:11:18.289Z,50.34
2019-05-10T15:13:47.848Z,50.50
2019-05-10T15:16:25.719Z,51.43
2019-05-10T15:18:49.638Z,50.53
2019-05-10T15:21:19.159Z,49.95
2019-05-10T15:23:48.940Z,50.33
2019-05-10T15:26:18.473Z,50.20
2019-05-10T15:28:50.711Z,50.81
2019-05-10T15:31:23.675Z,50.64
2019-05-10T15:33:52.014Z,51.28
2019-05-10T15:36:23.644Z,50.92
2019-05-10T15:38:53.111Z,51.41
2019-05-10T15:41:24.003Z,50.61
2019-05-10T15:43:54.991Z,51.03
2019-05-10T15:46:35.329Z,51.33
2019-05-10T15:48:55.918Z,50.95
2019-05-10T15:51:35.736Z,50.98
2019-05-10T15:54:04.209Z,51.75
2019-05-10T15:56:28.901Z,51.25
2019-05-10T15:58:58.448Z,50.77
2019-05-10T16:01:29.192Z,50.19
2019-05-10T16:03:58.862Z,49.25
2019-05-10T16:06:37.300Z,50.23
2019-05-10T16:09:02.896Z,50.17
2019-05-10T16:11:32.796Z,50.55
2019-05-10T16:14:02.338Z,50.38
2019-05-10T16:16:36.974Z,50.45
2019-05-10T16:19:03.218Z,49.73
2019-05-10T16:21:34.121Z,49.13
2019-05-10T16:24:04.451Z,48.11
2019-05-10T16:26:34.241Z,48.40
2019-05-10T16:29:03.688Z,48.71
2019-05-10T16:31:33.196Z,49.28
2019-05-10T16:34:02.656Z,48.81
2019-05-10T16:36:32.138Z,48.72
2019-05-10T16:39:02.193Z,48.39
2019-05-10T16:41:32.954Z,48.89
2019-05-10T16:44:02.433Z,47.80
2019-05-10T16:46:31.877Z,47.90
2019-05-10T16:49:01.366Z,47.88
2019-05-10T16:51:30.945Z,47.11
2019-05-10T16:54:00.427Z,46.22
2019-05-10T16:56:29.919Z,45.76
2019-05-10T16:58:59.706Z,44.67
2019-05-10T17:01:33.215Z,44.80
2019-05-10T17:04:01.798Z,43.90
2019-05-10T17:06:35.353Z,42.54
2019-05-10T17:09:02.684Z,41.49
2019-05-10T17:11:32.186Z,41.52
2019-05-10T17:14:01.922Z,38.66
2019-05-10T17:16:31.399Z,37.89
2019-05-10T17:19:00.947Z,36.56
2019-05-10T17:21:30.429Z,38.71
2019-05-10T17:24:01.290Z,40.83
2019-05-10T17:26:32.803Z,42.39
2019-05-10T17:29:02.346Z,43.66
2019-05-10T17:31:32.880Z,44.72
2019-05-10T17:34:02.323Z,46.25
2019-05-10T17:36:32.196Z,46.80
2019-05-10T17:39:01.641Z,47.33
2019-05-10T17:41:31.304Z,47.31
2019-05-10T17:44:00.777Z,48.60
2019-05-10T17:46:30.248Z,49.30
2019-05-10T17:48:59.729Z,50.41
2019-05-10T17:51:29.209Z,50.86
2019-05-10T17:54:01.538Z,51.17
2019-05-10T17:56:32.934Z,51.41
2019-05-10T17:59:05.970Z,51.67
2019-05-10T18:01:32.465Z,51.67
2019-05-10T18:04:01.992Z,51.93
2019-05-10T18:06:31.508Z,52.53
2019-05-10T18:09:02.456Z,52.71
2019-05-10T18:11:36.922Z,53.17
2019-05-10T18:14:04.991Z,53.48
2019-05-10T18:16:34.525Z,53.75
2019-05-10T18:19:04.012Z,54.11
2019-05-10T18:21:33.457Z,54.95
2019-05-10T18:24:02.902Z,54.97
2019-05-10T18:26:34.197Z,55.30
2019-05-10T18:29:03.985Z,55.08
2019-05-10T18:31:33.465Z,55.25
2019-05-10T18:34:03.062Z,55.44
2019-05-10T18:36:50.605Z,56.09
2019-05-10T18:39:08.912Z,56.29
2019-05-10T18:41:36.690Z,56.66
2019-05-10T18:44:06.283Z,56.84
2019-05-10T18:46:35.805Z,57.01
2019-05-10T18:49:05.869Z,57.10
2019-05-10T18:51:35.734Z,57.22
2019-05-10T18:54:05.591Z,57.45
2019-05-10T18:56:35.052Z,57.61
2019-05-10T18:59:07.358Z,58.14
2019-05-10T19:01:38.791Z,58.26
2019-05-10T19:04:13.175Z,58.57
2019-05-10T19:06:38.356Z,58.77
2019-05-10T19:09:08.096Z,58.95
2019-05-10T19:11:39.067Z,59.11
2019-05-10T19:14:09.115Z,59.36
2019-05-10T19:16:38.712Z,59.51
2019-05-10T19:19:08.535Z,59.68
2019-05-10T19:21:38.411Z,59.90
2019-05-10T19:24:07.982Z,60.06
2019-05-10T19:26:37.467Z,60.33
2019-05-10T19:29:07.054Z,60.52
2019-05-10T19:31:40.261Z,60.74
2019-05-10T19:34:09.131Z,60.93
2019-05-10T19:36:39.721Z,61.08
2019-05-10T19:39:09.310Z,61.32
2019-05-10T19:41:38.824Z,61.51
2019-05-10T19:44:08.311Z,61.62
2019-05-10T19:46:39.524Z,61.85
2019-05-10T19:49:13.178Z,61.93
2019-05-10T19:51:42.360Z,62.00
2019-05-10T19:54:13.734Z,62.09
2019-05-10T19:56:42.665Z,62.20
2019-05-10T19:59:13.536Z,62.44
2019-05-10T20:01:45.424Z,62.66
2019-05-10T20:04:14.621Z,62.82
2019-05-10T20:06:44.070Z,62.94
2019-05-10T20:09:13.831Z,63.08
2019-05-10T20:11:43.282Z,63.14
2019-05-10T20:14:12.841Z,63.19
2019-05-10T20:16:52.198Z,63.29
2019-05-10T20:19:13.575Z,63.26
2019-05-10T20:21:43.057Z,63.28
2019-05-10T20:24:13.988Z,63.29
2019-05-10T20:26:43.488Z,63.15
2019-05-10T20:29:12.987Z,63.14
2019-05-10T20:31:42.455Z,63.25
2019-05-10T20:34:12.009Z,63.19
2019-05-10T20:36:41.459Z,63.28
2019-05-10T20:39:10.940Z,63.30
2019-05-10T20:41:40.844Z,63.41
2019-05-10T20:44:10.324Z,63.32
2019-05-10T20:46:39.932Z,63.25
2019-05-10T20:49:09.434Z,63.19
2019-05-10T20:51:38.929Z,63.31
2019-05-10T20:54:08.383Z,63.64
2019-05-10T20:56:37.901Z,63.73
2019-05-10T20:59:07.563Z,63.73
2019-05-10T21:01:37.329Z,63.90
2019-05-10T21:04:06.818Z,64.03
2019-05-10T21:06:37.447Z,64.11
2019-05-10T21:09:07.670Z,64.42
2019-05-10T21:11:37.159Z,64.56
2019-05-10T21:14:06.760Z,64.67
2019-05-10T21:16:37.338Z,64.57
2019-05-10T21:19:06.874Z,64.52
2019-05-10T21:21:36.334Z,64.50
2019-05-10T21:24:05.838Z,64.51
2019-05-10T21:26:35.429Z,64.54
2019-05-10T21:29:05.165Z,64.70
2019-05-10T21:31:34.606Z,64.88
2019-05-10T21:34:09.559Z,64.90
2019-05-10T21:36:35.634Z,64.67
2019-05-10T21:39:07.096Z,64.62
2019-05-10T21:41:36.546Z,64.54
2019-05-10T21:44:07.417Z,64.45
2019-05-10T21:46:36.937Z,64.45
2019-05-10T21:49:06.445Z,64.38
2019-05-10T21:51:35.973Z,64.31
2019-05-10T21:54:05.780Z,64.29
2019-05-10T21:56:36.506Z,64.23
2019-05-10T21:59:06.641Z,64.39
2019-05-10T22:01:36.627Z,64.66
2019-05-10T22:04:06.200Z,64.65
2019-05-10T22:06:35.737Z,64.76
2019-05-10T22:09:07.543Z,64.90
2019-05-10T22:11:37.022Z,65.13
2019-05-10T22:14:06.515Z,65.26
2019-05-10T22:16:36.081Z,65.41
2019-05-10T22:19:05.577Z,65.63
2019-05-10T22:21:35.355Z,65.92
2019-05-10T22:24:05.366Z,66.19
2019-05-10T22:26:35.174Z,66.58
2019-05-10T22:29:04.674Z,66.99
2019-05-10T22:31:35.134Z,67.20
2019-05-10T22:34:05.978Z,67.32
2019-05-10T22:36:35.493Z,67.43
2019-05-10T22:39:07.637Z,67.57
2019-05-10T22:41:37.215Z,67.74
2019-05-10T22:44:06.740Z,68.17
2019-05-10T22:46:36.236Z,68.35
2019-05-10T22:49:05.684Z,68.66
2019-05-10T22:51:35.149Z,69.17
2019-05-10T22:54:04.711Z,69.76
2019-05-10T22:56:34.228Z,70.18
2019-05-10T22:59:04.082Z,70.68
2019-05-10T23:01:33.582Z,70.74
2019-05-10T23:04:03.126Z,70.98
2019-05-10T23:06:32.627Z,71.49
2019-05-10T23:09:02.127Z,71.80
2019-05-10T23:11:31.798Z,72.02
2019-05-10T23:14:01.263Z,72.26
2019-05-10T23:16:30.749Z,72.48
2019-05-10T23:19:00.195Z,72.68
2019-05-10T23:21:29.693Z,72.78
2019-05-10T23:24:00.823Z,73.24
2019-05-10T23:26:30.706Z,73.38
2019-05-10T23:29:00.204Z,73.39
2019-05-10T23:31:29.708Z,73.41
2019-05-10T23:33:59.451Z,73.42
2019-05-10T23:36:29.017Z,73.49
2019-05-10T23:38:58.474Z,73.67
2019-05-10T23:41:27.967Z,73.60
2019-05-10T23:43:57.426Z,73.57
2019-05-10T23:46:27.273Z,73.61
2019-05-10T23:48:57.082Z,73.54
2019-05-10T23:51:26.946Z,73.75
2019-05-10T23:53:56.413Z,74.06
2019-05-10T23:56:26.059Z,74.22
2019-05-10T23:58:55.520Z,74.30
